createdAt,value
2022-12-05T00:00:37.090Z,11.2
2022-12-05T00:06:57.034Z,11.2
2022-12-05T00:13:20.077Z,16.9
2022-12-05T00:19:40.016Z,16.9
2022-12-05T00:26:03.015Z,27.5
2022-12-05T00:32:22.969Z,27.5
2022-12-05T00:38:46.090Z,23.8
2022-12-05T00:45:06.010Z,23.8
2022-12-05T00:51:29.017Z,15.6
2022-12-05T00:57:48.900Z,15.6
2022-12-05T01:04:11.921Z,11.8
2022-12-05T01:10:32.047Z,11.8
2022-12-05T01:16:55.192Z,21.2
2022-12-05T01:23:15.013Z,21.2
2022-12-05T01:29:38.002Z,24.1
2022-12-05T01:35:58.035Z,24.1
2022-12-05T01:42:25.974Z,19.4
2022-12-05T01:48:40.998Z,19.4
2022-12-05T01:55:04.046Z,13.6
2022-12-05T02:01:24.029Z,13.6
2022-12-05T02:07:47.099Z,27.2
2022-12-05T02:14:06.943Z,27.2
2022-12-05T02:20:29.981Z,16.6
2022-12-05T02:26:49.959Z,16.6
2022-12-05T02:33:13.146Z,11.4
2022-12-05T02:39:32.943Z,11.4
2022-12-05T02:45:56.024Z,8.9
2022-12-05T02:52:15.929Z,8.9
2022-12-05T02:58:39.115Z,18
2022-12-05T03:04:58.924Z,18
2022-12-05T03:11:21.983Z,7.5
2022-12-05T03:17:41.877Z,7.5
2022-12-05T03:24:04.955Z,11.1
2022-12-05T03:30:25.035Z,11.1
2022-12-05T03:36:47.997Z,12
2022-12-05T03:43:07.888Z,12
2022-12-05T03:49:34.035Z,10.5
2022-12-05T03:55:50.946Z,10.5
2022-12-05T04:02:13.970Z,12.3
2022-12-05T04:08:33.935Z,12.3
2022-12-05T04:24:07.831Z,9.2
2022-12-05T04:30:27.960Z,9.2
2022-12-05T04:36:50.916Z,7.2
2022-12-05T04:43:10.897Z,7.2
2022-12-05T04:49:33.945Z,21.7
2022-12-05T04:55:54.060Z,21.7
2022-12-05T05:02:17.107Z,26.4
2022-12-05T05:08:36.922Z,26.4
2022-12-05T05:15:00.192Z,7
2022-12-05T05:21:19.937Z,7
2022-12-05T05:27:42.886Z,9.7
2022-12-05T05:34:09.041Z,9.7
2022-12-05T05:40:26.035Z,8.7
2022-12-05T05:46:46.028Z,8.7
2022-12-05T05:53:09.034Z,25.4
2022-12-05T05:59:29.081Z,25.4
2022-12-05T06:05:53.184Z,7.5
2022-12-05T06:12:11.965Z,7.5
2022-12-05T06:18:35.030Z,20.8
2022-12-05T06:24:55.001Z,20.8
2022-12-05T06:31:18.079Z,10.4
2022-12-05T06:37:38.049Z,10.4
2022-12-05T06:44:02.385Z,7.5
2022-12-05T06:50:21.009Z,7.5
2022-12-05T06:56:44.090Z,7.5
2022-12-05T07:03:03.928Z,7.5
2022-12-05T07:09:26.904Z,18.9
2022-12-05T07:15:46.948Z,18.9
2022-12-05T07:22:15.323Z,4.9
2022-12-05T07:28:29.941Z,4.9
2022-12-05T07:34:55.419Z,10.7
2022-12-05T07:41:13.607Z,10.7
2022-12-05T07:47:36.086Z,7.2
2022-12-05T07:53:55.942Z,7.2
2022-12-05T08:00:19.029Z,13
2022-12-05T08:06:39.087Z,13
2022-12-05T08:13:02.024Z,2.7
2022-12-05T08:19:21.971Z,2.7
2022-12-05T08:25:45.018Z,6.3
2022-12-05T08:32:04.945Z,6.3
2022-12-05T08:38:27.900Z,5.3
2022-12-05T08:44:47.953Z,5.3
2022-12-05T08:51:11.396Z,7.2
2022-12-05T08:57:30.981Z,7.2
2022-12-05T09:03:54.019Z,9.4
2022-12-05T09:10:14.092Z,9.4
2022-12-05T09:33:01.880Z,17.4
2022-12-05T09:39:21.894Z,17.4
2022-12-05T09:45:44.896Z,24.1
2022-12-05T09:52:04.994Z,24.1
2022-12-05T09:58:28.103Z,10.2
2022-12-05T10:04:48.165Z,10.2
2022-12-05T10:11:11.083Z,11.4
2022-12-05T10:17:30.904Z,11.4
2022-12-05T10:23:58.509Z,18.7
2022-12-05T10:30:13.964Z,18.7
2022-12-05T10:36:37.069Z,15.6
2022-12-05T10:42:57.390Z,15.6
2022-12-05T10:49:20.396Z,7.9
2022-12-05T10:55:40.400Z,7.9
2022-12-05T11:02:02.989Z,9.3
2022-12-05T11:08:35.572Z,9.3
2022-12-05T11:14:45.982Z,11.3
2022-12-05T11:21:06.228Z,11.3
2022-12-05T11:27:29.194Z,10.4
2022-12-05T11:33:49.059Z,10.4
2022-12-05T11:40:11.966Z,10.2
2022-12-05T11:46:32.025Z,10.2
2022-12-05T11:52:54.909Z,8.9
2022-12-05T11:59:14.984Z,8.9
2022-12-05T12:05:38.108Z,12.6
2022-12-05T12:11:58.094Z,12.6
2022-12-05T12:18:20.949Z,14.8
2022-12-05T12:24:41.260Z,14.8
2022-12-05T12:31:04.152Z,19.1
2022-12-05T12:37:24.014Z,19.1
2022-12-05T12:43:54.707Z,6.1
2022-12-05T12:50:06.964Z,6.1
2022-12-05T12:56:29.889Z,12.3
2022-12-05T13:02:50.101Z,12.3
2022-12-05T13:09:12.968Z,11.1
2022-12-05T13:15:33.750Z,11.1
2022-12-05T13:21:57.231Z,11.1
2022-12-05T13:28:20.135Z,11.1
2022-12-05T13:34:39.988Z,5.8
2022-12-05T13:40:59.937Z,5.8
2022-12-05T13:47:23.122Z,8.2
2022-12-05T13:53:43.061Z,8.2
2022-12-05T14:00:05.929Z,8.9
2022-12-05T14:06:25.929Z,8.9
2022-12-05T14:12:49.505Z,15.2
2022-12-05T14:37:32.904Z,11.8
2022-12-05T14:43:53.130Z,11.8
2022-12-05T14:50:15.973Z,9.4
2022-12-05T14:56:36.004Z,9.4
2022-12-05T15:02:59.055Z,9.2
2022-12-05T15:09:36.290Z,9.2
2022-12-05T15:15:43.406Z,14.2
2022-12-05T15:22:03.260Z,14.2
2022-12-05T15:28:26.033Z,10
2022-12-05T15:34:46.415Z,10
2022-12-05T15:41:09.185Z,8.9
2022-12-05T15:47:28.894Z,8.9
2022-12-05T15:53:51.944Z,10.9
2022-12-05T16:00:11.883Z,10.9
2022-12-05T16:06:34.920Z,16.9
2022-12-05T16:12:54.916Z,16.9
2022-12-05T16:19:17.957Z,18.3
2022-12-05T16:25:37.899Z,18.3
2022-12-05T16:32:00.909Z,21.1
2022-12-05T16:38:21.034Z,21.1
2022-12-05T16:44:43.877Z,19.7
2022-12-05T16:51:03.995Z,19.7
2022-12-05T16:57:27.026Z,9.9
2022-12-05T17:03:47.056Z,9.9
2022-12-05T17:10:10.024Z,19.5
2022-12-05T17:16:29.964Z,19.5
2022-12-05T17:22:53.003Z,15.7
2022-12-05T17:29:13.063Z,15.7
2022-12-05T17:35:36.008Z,16.3
2022-12-05T17:41:56.056Z,16.3
2022-12-05T17:48:18.976Z,18
2022-12-05T17:54:39.060Z,18
2022-12-05T18:01:02.042Z,13.8
2022-12-05T18:07:21.923Z,13.8
2022-12-05T18:13:44.943Z,14.8
2022-12-05T18:20:05.071Z,14.8
2022-12-05T18:26:28.033Z,19.7
2022-12-05T18:32:47.941Z,19.7
2022-12-05T18:39:10.879Z,21
2022-12-05T18:45:30.976Z,21
2022-12-05T18:51:53.910Z,9.6
2022-12-05T18:58:13.875Z,9.6
2022-12-05T19:04:37.029Z,6.2
2022-12-05T19:10:56.924Z,6.2
2022-12-05T19:17:20.005Z,13.8
2022-12-05T19:23:40.106Z,13.8
2022-12-05T19:47:30.880Z,28.1
2022-12-05T19:53:53.887Z,28.1
2022-12-05T20:00:13.917Z,28.1
2022-12-05T20:06:36.892Z,9.9
2022-12-05T20:12:56.896Z,9.9
2022-12-05T20:19:20.117Z,10.9
2022-12-05T20:25:39.943Z,10.9
2022-12-05T20:32:02.909Z,17.5
2022-12-05T20:38:23.045Z,17.5
2022-12-05T20:44:46.050Z,15.1
2022-12-05T20:51:06.108Z,15.1
2022-12-05T20:57:28.963Z,14.9
2022-12-05T21:03:48.938Z,14.9
2022-12-05T21:10:12.031Z,6.6
2022-12-05T21:16:32.153Z,6.6
2022-12-05T21:22:55.189Z,14.8
2022-12-05T21:29:14.945Z,14.8
2022-12-05T21:35:38.042Z,14.3
2022-12-05T21:41:58.225Z,14.3
2022-12-05T21:48:20.987Z,10
2022-12-05T21:54:41.069Z,10
2022-12-05T22:01:04.066Z,11.4
2022-12-05T22:07:24.320Z,11.4
2022-12-05T22:13:47.050Z,5.4
2022-12-05T22:20:06.930Z,5.4
2022-12-05T22:26:29.930Z,9.3
2022-12-05T22:32:50.013Z,9.3
2022-12-05T22:39:13.040Z,6.6
2022-12-05T22:45:33.015Z,6.6
2022-12-05T22:51:56.031Z,12.8
2022-12-05T22:58:16.158Z,12.8
2022-12-05T23:22:33.946Z,27.2
2022-12-05T23:28:53.881Z,27.2
2022-12-05T23:35:16.904Z,27.2
2022-12-05T23:41:36.970Z,27.2
2022-12-05T23:48:04.357Z,7.9
2022-12-05T23:54:20.103Z,7.9
